createdAt,value
2023-05-05T00:00:34.387Z,5.3385
2023-05-05T00:01:37.389Z,6.0385
2023-05-05T00:02:40.393Z,4.9692
2023-05-05T00:03:43.394Z,5.3077
2023-05-05T00:04:46.224Z,8.1077
2023-05-05T00:05:49.178Z,5.9769
2023-05-05T00:06:52.140Z,5.6615
2023-05-05T00:07:55.092Z,6.1923
2023-05-05T00:08:58.018Z,6.3231
2023-05-05T00:10:00.989Z,5.3077
2023-05-05T00:11:03.935Z,7.1077
2023-05-05T00:12:06.886Z,4.0308
2023-05-05T00:13:09.866Z,5.9846
2023-05-05T00:14:12.806Z,4.9538
2023-05-05T00:15:15.893Z,5.3231
2023-05-05T00:16:18.700Z,5.4000
2023-05-05T00:17:21.660Z,4.4231
2023-05-05T00:18:24.640Z,5.8154
2023-05-05T00:19:27.570Z,6.6769
2023-05-05T00:20:30.529Z,6.3385
2023-05-05T00:21:33.459Z,5.4385
2023-05-05T00:22:36.441Z,5.2692
2023-05-05T00:23:39.365Z,4.9692
2023-05-05T00:24:42.354Z,4.4000
2023-05-05T00:25:45.297Z,6.5615
2023-05-05T00:26:48.237Z,4.9538
2023-05-05T00:27:51.176Z,5.4462
2023-05-05T00:28:54.187Z,5.9846
2023-05-05T00:29:57.078Z,5.1538
2023-05-05T00:31:00.067Z,7.1538
2023-05-05T00:32:02.972Z,6.4769
2023-05-05T00:33:05.972Z,5.7000
2023-05-05T00:34:08.875Z,6.5692
2023-05-05T00:35:11.873Z,5.5923
2023-05-05T00:36:14.797Z,4.4769
2023-05-05T00:37:17.729Z,5.0154
2023-05-05T00:38:20.715Z,4.7077
2023-05-05T00:39:23.655Z,5.4154
2023-05-05T00:40:26.594Z,5.5077
2023-05-05T00:41:29.550Z,5.5462
2023-05-05T00:42:32.480Z,5.2000
2023-05-05T00:43:35.463Z,4.3308
2023-05-05T00:44:38.402Z,4.9231
2023-05-05T00:45:41.365Z,6.7923
2023-05-05T00:46:44.380Z,5.1769
2023-05-05T00:47:47.240Z,5.3923
2023-05-05T00:48:50.195Z,4.5000
2023-05-05T00:49:53.182Z,4.0154
2023-05-05T00:50:56.085Z,6.2231
2023-05-05T00:51:59.048Z,4.8231
2023-05-05T00:53:01.987Z,5.1000
2023-05-05T00:54:04.942Z,6.0769
2023-05-05T00:55:07.911Z,6.3231
2023-05-05T00:56:10.850Z,5.6000
2023-05-05T00:57:13.789Z,5.3308
2023-05-05T00:58:16.731Z,6.8000
2023-05-05T00:59:19.685Z,6.4231
2023-05-05T01:00:22.627Z,4.9769
2023-05-05T01:01:25.668Z,5.7231
2023-05-05T01:02:28.623Z,5.3154
2023-05-05T01:03:31.538Z,5.8692
2023-05-05T01:04:34.469Z,6.4231
2023-05-05T01:05:37.439Z,5.9692
2023-05-05T01:06:40.392Z,5.1538
2023-05-05T01:07:43.354Z,5.3462
2023-05-05T01:08:46.316Z,5.8538
2023-05-05T01:09:53.412Z,5.6462
2023-05-05T01:10:52.216Z,5.2077
2023-05-05T01:11:55.171Z,6.0692
2023-05-05T01:12:58.169Z,5.7615
2023-05-05T01:14:01.074Z,4.9231
2023-05-05T01:15:04.034Z,6.0000
2023-05-05T01:16:07.177Z,5.9000
2023-05-05T01:17:09.990Z,5.2154
2023-05-05T01:18:12.922Z,6.0154
2023-05-05T01:19:15.871Z,4.7692
2023-05-05T01:20:18.811Z,4.0462
2023-05-05T01:21:21.779Z,4.9462
2023-05-05T01:22:24.765Z,4.4231
2023-05-05T01:23:27.712Z,4.3462
2023-05-05T01:24:30.630Z,5.1692
2023-05-05T01:25:33.596Z,5.2231
2023-05-05T01:26:36.541Z,6.3231
2023-05-05T01:27:39.547Z,5.3538
2023-05-05T01:28:42.547Z,4.2692
2023-05-05T01:29:45.428Z,5.1077
2023-05-05T01:30:48.387Z,4.7538
2023-05-05T01:31:51.402Z,4.0769
2023-05-05T01:32:54.293Z,4.3231
2023-05-05T01:33:57.273Z,5.9846
2023-05-05T01:35:00.208Z,4.6538
2023-05-05T01:36:03.246Z,4.9231
2023-05-05T01:37:06.125Z,5.6923
2023-05-05T01:38:09.088Z,4.5923
2023-05-05T01:39:12.041Z,5.8538
2023-05-05T01:40:14.990Z,5.6000
2023-05-05T01:41:17.946Z,5.5231
2023-05-05T01:42:20.918Z,4.8846
2023-05-05T01:43:23.864Z,5.3692
2023-05-05T01:44:26.812Z,4.8846
2023-05-05T01:45:29.821Z,4.9154
2023-05-05T01:46:32.770Z,6.0769
2023-05-05T01:47:35.686Z,6.1615
2023-05-05T01:48:39.750Z,4.1308
2023-05-05T01:49:41.606Z,5.5615
2023-05-05T01:50:44.559Z,4.4846
2023-05-05T01:51:47.553Z,4.7462
2023-05-05T01:52:50.490Z,5.9846
2023-05-05T01:53:53.455Z,3.9538
2023-05-05T01:54:56.384Z,4.4385
2023-05-05T01:55:59.390Z,4.6615
2023-05-05T01:57:02.475Z,3.9462
2023-05-05T01:58:05.260Z,4.4846
2023-05-05T01:59:08.210Z,6.1462
2023-05-05T02:00:11.278Z,4.1615
2023-05-05T02:01:14.163Z,5.8538
2023-05-05T02:02:17.113Z,6.0231
2023-05-05T02:03:20.177Z,4.6769
2023-05-05T02:04:23.017Z,4.7769
2023-05-05T02:05:25.976Z,6.0154
2023-05-05T02:06:28.907Z,4.2923
2023-05-05T02:07:31.849Z,4.0769
2023-05-05T02:08:34.812Z,4.6077
2023-05-05T02:09:37.778Z,4.3000
2023-05-05T02:10:40.720Z,4.4615
2023-05-05T02:11:43.698Z,5.3923
2023-05-05T02:12:46.791Z,4.3846
2023-05-05T02:13:49.598Z,5.6154
2023-05-05T02:14:52.566Z,4.9615
2023-05-05T02:15:55.512Z,5.4154
2023-05-05T02:16:58.472Z,6.0538
2023-05-05T02:18:01.440Z,5.1615
2023-05-05T02:19:04.378Z,4.2231
2023-05-05T02:20:07.505Z,4.5385
2023-05-05T02:21:10.267Z,4.8462
2023-05-05T02:22:13.228Z,5.7231
2023-05-05T02:23:16.184Z,6.3538
2023-05-05T02:24:19.173Z,4.7231
2023-05-05T02:25:22.086Z,5.0077
2023-05-05T02:26:25.049Z,4.8000
2023-05-05T02:27:28.051Z,4.8154
2023-05-05T02:28:30.974Z,5.2923
2023-05-05T02:29:33.916Z,3.8154
2023-05-05T02:30:36.925Z,5.4000
2023-05-05T02:31:39.886Z,5.0154
2023-05-05T02:32:42.827Z,4.8000
2023-05-05T02:33:45.740Z,5.2923
2023-05-05T02:34:48.733Z,4.7077
2023-05-05T02:35:51.665Z,5.5846
2023-05-05T02:36:54.637Z,5.4000
2023-05-05T02:37:57.582Z,4.6385
2023-05-05T02:39:00.503Z,6.0538
2023-05-05T02:40:03.474Z,4.1077
2023-05-05T02:41:06.443Z,4.0462
2023-05-05T02:42:09.376Z,5.1154
2023-05-05T02:43:12.363Z,5.5769
2023-05-05T02:44:15.297Z,5.2231
2023-05-05T02:45:18.276Z,4.6077
2023-05-05T02:46:21.269Z,4.3154
2023-05-05T02:47:24.180Z,4.0769
2023-05-05T02:48:27.136Z,5.3615
2023-05-05T02:49:30.078Z,5.1000
2023-05-05T02:50:33.018Z,4.6154
2023-05-05T02:51:35.959Z,4.5615
2023-05-05T02:52:38.947Z,4.3385
2023-05-05T02:53:41.963Z,4.9308
2023-05-05T02:54:44.845Z,4.3692
2023-05-05T02:55:47.782Z,4.0923
2023-05-05T02:56:50.793Z,4.2538
2023-05-05T02:57:53.698Z,5.2385
2023-05-05T02:58:56.669Z,4.6615
2023-05-05T02:59:59.618Z,4.5308
2023-05-05T03:01:02.632Z,4.6385
2023-05-05T03:02:05.582Z,4.9000
2023-05-05T03:03:08.541Z,4.6154
2023-05-05T03:04:11.427Z,4.2692
2023-05-05T03:05:14.396Z,6.1000
2023-05-05T03:06:17.409Z,6.5385
2023-05-05T03:07:20.329Z,4.8769
2023-05-05T03:08:23.262Z,4.6308
2023-05-05T03:09:26.204Z,5.2462
2023-05-05T03:10:29.166Z,4.8538
2023-05-05T03:11:32.128Z,4.7923
2023-05-05T03:12:35.124Z,5.0615
2023-05-05T03:13:38.033Z,4.1385
2023-05-05T03:14:41.021Z,4.2538
2023-05-05T03:15:43.946Z,4.7769
2023-05-05T03:16:46.943Z,5.7154
2023-05-05T03:17:49.913Z,4.6692
2023-05-05T03:18:52.918Z,3.4538
2023-05-05T03:19:55.777Z,4.3308
2023-05-05T03:20:58.713Z,5.4923
2023-05-05T03:22:01.699Z,5.4769
2023-05-05T03:23:04.633Z,5.7385
2023-05-05T03:24:07.609Z,5.1308
2023-05-05T03:25:10.790Z,5.2231
2023-05-05T03:26:13.527Z,3.7692
2023-05-05T03:27:16.509Z,3.8231
2023-05-05T03:28:19.437Z,4.1077
2023-05-05T03:29:22.425Z,5.9385
2023-05-05T03:30:25.346Z,5.4692
2023-05-05T03:31:28.400Z,5.5923
2023-05-05T03:32:31.284Z,4.7231
2023-05-05T03:33:34.230Z,4.1769
2023-05-05T03:34:37.474Z,4.2231
2023-05-05T03:35:40.137Z,5.9769
2023-05-05T03:36:43.097Z,4.0846
2023-05-05T03:37:46.096Z,5.4462
2023-05-05T03:38:49.010Z,6.2462
2023-05-05T03:39:51.979Z,4.1538
2023-05-05T03:40:54.925Z,5.5769
2023-05-05T03:41:57.915Z,4.1846
2023-05-05T03:43:00.841Z,6.2231
2023-05-05T03:44:03.807Z,5.4154
2023-05-05T03:45:06.750Z,4.3846
2023-05-05T03:46:09.729Z,5.9538
2023-05-05T03:47:12.677Z,4.7615
2023-05-05T03:48:15.696Z,4.8615
2023-05-05T03:49:18.657Z,4.4538
2023-05-05T03:50:21.618Z,4.8615
2023-05-05T03:51:24.562Z,3.5462
2023-05-05T03:52:27.517Z,4.5462
2023-05-05T03:53:30.506Z,5.3385
2023-05-05T03:54:33.470Z,3.9846
2023-05-05T03:55:36.525Z,4.2462
2023-05-05T03:56:39.374Z,4.1385
2023-05-05T03:57:42.339Z,5.3077
2023-05-05T03:58:45.276Z,6.0077
2023-05-05T03:59:48.218Z,6.3000
2023-05-05T04:00:51.179Z,5.9077
2023-05-05T04:01:54.180Z,4.4615
2023-05-05T04:02:57.187Z,6.2000
2023-05-05T04:04:00.119Z,5.6154
2023-05-05T04:05:03.007Z,4.0462
2023-05-05T04:06:06.046Z,6.3846
2023-05-05T04:07:08.973Z,4.6385
2023-05-05T04:08:11.898Z,3.7385
2023-05-05T04:09:14.847Z,5.1308
2023-05-05T04:10:17.858Z,4.4692
2023-05-05T04:11:20.750Z,4.9462
2023-05-05T04:12:23.713Z,4.8077
2023-05-05T04:13:26.701Z,4.3462
2023-05-05T04:14:29.648Z,3.7231
2023-05-05T04:15:32.586Z,3.4615
2023-05-05T04:16:35.534Z,3.8769
2023-05-05T04:17:38.541Z,4.3846
2023-05-05T04:18:41.469Z,4.6077
2023-05-05T04:19:44.446Z,4.4231
2023-05-05T04:20:47.380Z,4.6538
2023-05-05T04:21:50.550Z,5.6154
2023-05-05T04:22:53.368Z,5.2077
2023-05-05T04:23:56.290Z,6.5308
2023-05-05T04:24:59.275Z,4.2846
2023-05-05T04:26:02.165Z,5.8538
2023-05-05T04:27:05.124Z,5.9538
2023-05-05T04:28:08.061Z,4.3154
2023-05-05T04:29:11.008Z,6.3538
2023-05-05T04:30:14.026Z,5.8154
2023-05-05T04:31:16.965Z,4.2692
2023-05-05T04:32:19.875Z,4.1538
2023-05-05T04:33:22.823Z,3.5385
2023-05-05T04:34:25.758Z,4.4308
2023-05-05T04:35:28.738Z,4.2846
2023-05-05T04:36:31.670Z,6.5846
2023-05-05T04:37:34.623Z,5.8000
2023-05-05T04:38:37.648Z,4.5000
2023-05-05T04:39:40.522Z,5.1308
2023-05-05T04:40:43.452Z,4.6615
2023-05-05T04:41:46.418Z,4.6538
2023-05-05T04:42:49.368Z,4.7000
2023-05-05T04:43:52.336Z,5.6846
2023-05-05T04:44:55.266Z,4.7846
2023-05-05T04:45:58.216Z,4.7154
2023-05-05T04:47:01.170Z,4.1231
2023-05-05T04:48:04.167Z,7.4308
2023-05-05T04:49:07.040Z,4.7462
2023-05-05T04:50:10.245Z,5.6538
2023-05-05T04:51:13.029Z,6.5308
2023-05-05T04:52:15.916Z,7.1077
2023-05-05T04:53:18.840Z,4.5538
2023-05-05T04:54:21.850Z,4.9000
2023-05-05T04:55:24.763Z,5.0231
2023-05-05T04:56:27.696Z,4.1692
2023-05-05T04:57:30.654Z,5.2846
2023-05-05T04:58:33.619Z,4.5769
2023-05-05T04:59:36.530Z,4.8231
2023-05-05T05:00:39.464Z,5.5077
2023-05-05T05:01:42.439Z,4.5385
2023-05-05T05:02:45.520Z,5.0923
2023-05-05T05:03:48.419Z,4.7769
2023-05-05T05:04:51.263Z,4.0538
2023-05-05T05:05:54.247Z,4.9000
2023-05-05T05:06:59.111Z,4.5615
2023-05-05T05:08:00.135Z,5.2308
2023-05-05T05:09:03.045Z,5.9231
2023-05-05T05:10:06.214Z,4.3231
2023-05-05T05:11:08.939Z,5.3846
2023-05-05T05:12:11.895Z,5.6154
2023-05-05T05:13:14.861Z,4.6538
2023-05-05T05:14:17.830Z,5.1462
2023-05-05T05:15:20.754Z,5.3308
2023-05-05T05:16:23.741Z,4.7154
2023-05-05T05:17:26.898Z,6.3769
2023-05-05T05:18:29.579Z,5.2231
2023-05-05T05:19:32.538Z,16.6308
2023-05-05T05:20:35.596Z,8.0769
2023-05-05T05:21:38.445Z,6.3231
2023-05-05T05:22:41.433Z,5.8308
2023-05-05T05:23:44.304Z,5.5462
2023-05-05T05:24:47.260Z,4.6385
2023-05-05T05:25:50.215Z,5.9923
2023-05-05T05:26:53.144Z,5.2769
2023-05-05T05:28:08.964Z,5.3308
2023-05-05T05:28:59.033Z,5.4769
2023-05-05T05:30:02.008Z,5.1308
2023-05-05T05:31:05.127Z,5.8769
2023-05-05T05:32:07.948Z,5.0231
2023-05-05T05:33:10.906Z,5.1385
2023-05-05T05:34:13.777Z,5.4231
2023-05-05T05:35:16.783Z,5.3615
2023-05-05T05:36:19.698Z,5.7308
2023-05-05T05:37:22.726Z,7.9769
2023-05-05T05:38:25.572Z,8.0615
2023-05-05T05:39:28.576Z,5.5308
2023-05-05T05:40:31.528Z,6.1692
2023-05-05T05:41:34.485Z,5.9615
2023-05-05T05:42:37.374Z,4.9692
2023-05-05T05:43:40.324Z,5.8308
2023-05-05T05:44:43.260Z,5.2000
2023-05-05T05:45:46.202Z,6.9538
2023-05-05T05:46:49.159Z,4.9231
2023-05-05T05:47:52.186Z,6.1923
2023-05-05T05:48:55.067Z,8.3692
2023-05-05T05:49:58.132Z,5.6231
2023-05-05T05:51:00.920Z,5.0923
2023-05-05T05:52:03.854Z,4.9769
2023-05-05T05:53:06.926Z,6.2077
2023-05-05T05:54:09.770Z,5.9769
2023-05-05T05:55:12.881Z,5.7462
2023-05-05T05:56:15.822Z,4.9692
2023-05-05T05:57:18.698Z,10.2231
2023-05-05T05:58:21.569Z,5.5923
2023-05-05T05:59:24.623Z,5.6538
2023-05-05T06:00:27.553Z,6.5231
2023-05-05T06:01:30.448Z,6.0615
2023-05-05T06:02:33.473Z,5.5769
2023-05-05T06:03:36.394Z,5.7385
2023-05-05T06:04:39.324Z,6.0923
2023-05-05T06:05:42.221Z,5.6462
2023-05-05T06:06:45.213Z,5.1308
2023-05-05T06:07:48.154Z,5.4846
2023-05-05T06:08:51.065Z,5.8231
2023-05-05T06:09:53.988Z,5.3538
2023-05-05T06:10:56.938Z,5.4923
2023-05-05T06:11:59.860Z,4.3923
2023-05-05T06:13:02.840Z,8.2615
2023-05-05T06:14:05.755Z,6.8077
2023-05-05T06:15:08.753Z,6.8692
2023-05-05T06:16:11.754Z,6.6769
2023-05-05T06:17:14.663Z,6.7385
2023-05-05T06:18:17.640Z,5.0769
2023-05-05T06:19:20.488Z,5.5231
2023-05-05T06:20:23.442Z,4.6923
2023-05-05T06:21:26.471Z,6.4385
2023-05-05T06:22:29.327Z,5.1308
2023-05-05T06:23:32.337Z,4.8923
2023-05-05T06:24:35.233Z,5.1769
2023-05-05T06:25:38.202Z,5.0923
2023-05-05T06:26:41.147Z,5.0692
2023-05-05T06:27:44.092Z,4.2769
2023-05-05T06:28:47.062Z,4.5308
2023-05-05T06:29:49.983Z,5.0846
2023-05-05T06:30:53.038Z,4.8000
2023-05-05T06:31:55.910Z,6.1769
2023-05-05T06:32:58.912Z,5.9308
2023-05-05T06:34:01.926Z,4.7385
2023-05-05T06:35:04.724Z,5.4154
2023-05-05T06:36:07.860Z,4.5462
2023-05-05T06:37:10.650Z,5.1154
2023-05-05T06:38:13.584Z,4.1692
2023-05-05T06:39:16.514Z,4.1000
2023-05-05T06:40:19.611Z,5.3231
2023-05-05T06:41:22.411Z,5.6692
2023-05-05T06:42:25.432Z,5.6769
2023-05-05T06:43:28.306Z,5.7000
2023-05-05T06:44:31.463Z,4.5692
2023-05-05T06:45:34.163Z,4.5308
2023-05-05T06:46:37.150Z,6.5000
2023-05-05T06:47:40.154Z,4.8615
2023-05-05T06:48:43.031Z,5.2154
2023-05-05T06:49:45.990Z,6.0692
2023-05-05T06:50:49.144Z,5.2769
2023-05-05T06:51:51.998Z,4.7692
2023-05-05T06:52:54.838Z,4.0308
2023-05-05T06:53:57.796Z,6.0692
2023-05-05T06:55:00.760Z,7.2231
2023-05-05T06:56:03.686Z,4.3769
2023-05-05T06:57:06.724Z,5.8769
2023-05-05T06:58:09.677Z,5.4000
2023-05-05T06:59:12.566Z,4.1077
2023-05-05T07:00:15.516Z,5.6308
2023-05-05T07:01:18.533Z,6.6000
2023-05-05T07:02:21.356Z,4.2538
2023-05-05T07:03:24.327Z,5.9692
2023-05-05T07:04:27.279Z,6.8000
2023-05-05T07:05:30.218Z,6.4462
2023-05-05T07:06:33.207Z,5.0538
2023-05-05T07:07:36.088Z,5.5615
2023-05-05T07:08:39.043Z,5.0154
2023-05-05T07:09:41.977Z,5.3462
2023-05-05T07:10:44.966Z,5.5077
2023-05-05T07:11:47.884Z,5.6231
2023-05-05T07:12:50.811Z,5.3308
2023-05-05T07:13:53.888Z,4.6385
2023-05-05T07:14:56.778Z,4.2615
2023-05-05T07:15:59.787Z,5.9000
2023-05-05T07:17:02.601Z,5.6692
2023-05-05T07:18:05.654Z,5.4538
2023-05-05T07:19:08.500Z,4.7692
2023-05-05T07:20:11.470Z,5.0846
2023-05-05T07:21:14.416Z,3.9692
2023-05-05T07:22:17.364Z,4.6615
2023-05-05T07:23:20.273Z,5.2462
2023-05-05T07:24:23.272Z,4.6385
2023-05-05T07:25:26.204Z,5.2308
2023-05-05T07:26:29.178Z,4.7615
2023-05-05T07:27:32.056Z,5.2769
2023-05-05T07:28:35.017Z,4.9385
2023-05-05T07:29:37.975Z,5.5077
2023-05-05T07:30:40.888Z,4.7769
2023-05-05T07:31:43.904Z,4.8077
2023-05-05T07:32:46.825Z,4.5538
2023-05-05T07:33:49.837Z,4.2077
2023-05-05T07:34:52.727Z,4.1077
2023-05-05T07:35:55.623Z,4.9538
2023-05-05T07:36:58.599Z,4.6000
2023-05-05T07:38:01.541Z,3.8692
2023-05-05T07:39:04.534Z,4.3154
2023-05-05T07:40:07.577Z,4.0077
2023-05-05T07:41:10.380Z,3.9462
2023-05-05T07:42:13.292Z,3.8615
2023-05-05T07:43:16.357Z,3.8154
2023-05-05T07:44:19.192Z,5.0538
2023-05-05T07:45:22.152Z,3.5846
2023-05-05T07:46:25.148Z,4.7462
2023-05-05T07:47:28.195Z,3.7308
2023-05-05T07:48:31.024Z,4.8154
2023-05-05T07:49:34.018Z,4.9692
2023-05-05T07:50:36.907Z,4.7308
2023-05-05T07:51:39.843Z,5.5692
2023-05-05T07:52:46.820Z,4.9077
2023-05-05T07:53:45.805Z,4.9769
2023-05-05T07:54:48.677Z,5.6462
2023-05-05T07:55:51.742Z,4.7308
2023-05-05T07:56:54.653Z,4.8846
2023-05-05T07:57:57.590Z,7.2385
2023-05-05T07:59:00.557Z,4.4769
2023-05-05T08:00:03.501Z,5.5462
2023-05-05T08:01:06.483Z,6.7385
2023-05-05T08:02:09.634Z,5.7769
2023-05-05T08:03:12.552Z,4.7462
2023-05-05T08:04:15.335Z,5.2000
2023-05-05T08:05:18.253Z,4.0154
2023-05-05T08:06:21.198Z,5.2000
2023-05-05T08:07:24.184Z,4.6923
2023-05-05T08:08:27.097Z,4.6769
2023-05-05T08:09:30.055Z,4.1385
2023-05-05T08:10:33.002Z,4.2154
2023-05-05T08:11:35.956Z,4.3615
2023-05-05T08:12:39.004Z,4.1077
2023-05-05T08:13:41.888Z,5.2154
2023-05-05T08:14:44.825Z,5.2308
2023-05-05T08:15:47.858Z,4.7769
2023-05-05T08:16:50.705Z,5.9538
2023-05-05T08:17:53.711Z,6.2923
2023-05-05T08:18:56.675Z,4.1923
2023-05-05T08:19:59.569Z,3.9154
2023-05-05T08:21:02.537Z,5.0538
2023-05-05T08:22:05.473Z,4.5154
2023-05-05T08:23:08.456Z,5.6077
2023-05-05T08:24:11.406Z,3.8385
2023-05-05T08:25:14.336Z,4.0615
2023-05-05T08:26:17.413Z,4.7923
2023-05-05T08:27:20.225Z,3.8538
2023-05-05T08:28:23.235Z,4.6462
2023-05-05T08:29:26.205Z,3.6154
2023-05-05T08:30:29.082Z,4.1308
2023-05-05T08:31:32.074Z,4.0769
2023-05-05T08:32:35.170Z,3.9154
2023-05-05T08:33:37.965Z,4.5769
2023-05-05T08:34:41.009Z,4.2385
2023-05-05T08:35:43.846Z,3.8385
2023-05-05T08:36:46.807Z,4.2000
2023-05-05T08:37:49.743Z,4.8846
2023-05-05T08:38:52.688Z,4.9846
2023-05-05T08:39:55.643Z,4.1538
2023-05-05T08:40:58.698Z,4.4615
2023-05-05T08:42:01.653Z,3.9615
2023-05-05T08:43:04.522Z,3.6308
2023-05-05T08:44:07.456Z,4.1308
2023-05-05T08:45:10.926Z,3.8692
2023-05-05T08:46:13.554Z,5.3231
2023-05-05T08:47:16.357Z,4.2308
2023-05-05T08:48:19.367Z,4.7385
2023-05-05T08:49:22.378Z,4.3769
2023-05-05T08:50:25.267Z,4.7692
2023-05-05T08:51:28.133Z,3.6154
2023-05-05T08:52:31.174Z,3.9538
2023-05-05T08:53:34.039Z,3.8385
2023-05-05T08:54:36.981Z,3.8923
2023-05-05T08:55:39.965Z,4.6462
2023-05-05T08:56:42.912Z,4.5385
2023-05-05T08:57:45.830Z,3.9308
2023-05-05T08:58:48.802Z,4.3000
2023-05-05T08:59:51.769Z,4.3692
2023-05-05T09:00:54.757Z,4.6154
2023-05-05T09:01:57.690Z,5.6385
2023-05-05T09:03:00.854Z,4.6462
2023-05-05T09:04:03.572Z,4.2308
2023-05-05T09:05:06.825Z,3.5538
2023-05-05T09:06:09.641Z,4.6923
2023-05-05T09:07:12.459Z,4.7769
2023-05-05T09:08:15.422Z,3.8000
2023-05-05T09:09:18.339Z,4.0154
2023-05-05T09:10:21.391Z,3.2308
2023-05-05T09:11:24.280Z,3.1077
2023-05-05T09:12:27.183Z,4.1000
2023-05-05T09:13:30.142Z,4.3231
2023-05-05T09:14:33.083Z,5.8538
2023-05-05T09:15:36.076Z,6.4231
2023-05-05T09:16:38.969Z,8.0385
2023-05-05T09:17:42.071Z,6.3000
2023-05-05T09:18:44.878Z,5.1231
2023-05-05T09:19:47.835Z,3.7385
2023-05-05T09:20:50.799Z,3.6538
2023-05-05T09:21:53.794Z,5.4615
2023-05-05T09:22:56.717Z,3.9462
2023-05-05T09:24:04.919Z,4.2154
2023-05-05T09:25:02.614Z,2.9615
2023-05-05T09:26:05.572Z,4.5000
2023-05-05T09:27:08.539Z,4.8000
2023-05-05T09:28:11.501Z,4.6462
2023-05-05T09:29:14.417Z,4.1923
2023-05-05T09:30:17.569Z,4.5462
2023-05-05T09:31:20.371Z,4.4385
2023-05-05T09:32:23.322Z,4.2769
2023-05-05T09:33:26.534Z,5.0077
2023-05-05T09:34:29.186Z,3.7769
2023-05-05T09:35:32.141Z,4.7385
2023-05-05T09:36:35.118Z,3.7846
2023-05-05T09:37:38.187Z,3.7615
2023-05-05T09:38:41.002Z,4.1077
2023-05-05T09:39:43.950Z,4.9231
2023-05-05T09:40:46.900Z,5.7077
2023-05-05T09:41:49.910Z,4.1308
2023-05-05T09:42:52.812Z,4.5462
2023-05-05T09:43:55.746Z,3.3000
2023-05-05T09:45:00.042Z,3.4923
2023-05-05T09:46:01.764Z,4.9923
2023-05-05T09:47:09.464Z,4.7462
2023-05-05T09:48:07.585Z,5.4846
2023-05-05T09:49:10.554Z,4.5231
2023-05-05T09:50:13.495Z,4.1615
2023-05-05T09:51:16.500Z,4.5923
2023-05-05T09:52:19.409Z,5.3846
2023-05-05T09:53:22.447Z,4.2077
2023-05-05T09:54:25.338Z,6.5846
2023-05-05T09:55:28.237Z,5.8692
2023-05-05T09:56:31.199Z,4.3615
2023-05-05T09:57:34.164Z,7.3769
2023-05-05T09:58:37.173Z,7.1000
2023-05-05T09:59:40.147Z,4.4308
2023-05-05T10:00:43.025Z,3.8769
2023-05-05T10:01:45.997Z,3.7692
2023-05-05T10:02:48.955Z,6.7923
2023-05-05T10:03:51.902Z,18.2308
2023-05-05T10:04:54.873Z,4.7000
2023-05-05T10:05:57.824Z,4.9000
2023-05-05T10:07:00.754Z,7.6538
2023-05-05T10:08:03.722Z,19.6385
2023-05-05T10:09:06.636Z,7.3769
2023-05-05T10:10:09.994Z,4.7538
2023-05-05T10:11:12.590Z,5.3000
2023-05-05T10:12:15.551Z,4.3615
2023-05-05T10:13:18.652Z,4.0615
2023-05-05T10:14:21.399Z,4.2692
2023-05-05T10:15:24.521Z,4.5231
2023-05-05T10:16:28.613Z,4.7077
2023-05-05T10:17:30.297Z,3.2615
2023-05-05T10:18:33.226Z,4.1923
2023-05-05T10:19:36.204Z,3.9000
2023-05-05T10:20:39.180Z,4.4385
2023-05-05T10:21:42.324Z,4.2462
2023-05-05T10:22:45.055Z,3.8769
2023-05-05T10:23:48.033Z,3.8692
2023-05-05T10:24:50.914Z,3.2000
2023-05-05T10:25:53.899Z,4.3231
2023-05-05T10:26:56.875Z,3.5077
2023-05-05T10:27:59.785Z,3.5769
2023-05-05T10:29:02.743Z,3.5615
2023-05-05T10:30:05.791Z,4.4077
2023-05-05T10:31:23.955Z,3.4385
2023-05-05T10:32:33.577Z,4.2000
2023-05-05T10:33:31.207Z,6.0769
2023-05-05T10:34:17.553Z,3.7385
2023-05-05T10:35:20.485Z,3.9846
2023-05-05T10:36:24.472Z,3.5923
2023-05-05T10:37:26.415Z,4.7538
2023-05-05T10:38:29.367Z,5.0231
2023-05-05T10:39:32.316Z,4.0000
2023-05-05T10:40:35.429Z,5.2077
2023-05-05T10:41:38.246Z,3.7923
2023-05-05T10:42:41.191Z,41.3385
2023-05-05T10:43:44.148Z,79.2692
2023-05-05T10:44:47.151Z,78.0846
2023-05-05T10:45:50.181Z,15.5000
2023-05-05T10:46:53.042Z,17.6769
2023-05-05T10:47:56.026Z,11.6615
2023-05-05T10:48:58.981Z,14.1077
2023-05-05T10:50:01.934Z,25.3154
2023-05-05T10:51:04.918Z,33.1385
2023-05-05T10:52:07.952Z,26.0462
2023-05-05T10:53:10.828Z,26.2077
2023-05-05T10:54:13.836Z,24.9769
2023-05-05T10:55:16.765Z,7.1923
2023-05-05T10:56:19.790Z,19.4692
2023-05-05T10:57:22.655Z,12.3692
2023-05-05T10:58:25.812Z,8.3000
2023-05-05T10:59:28.680Z,4.5077
2023-05-05T11:00:31.811Z,4.3231
2023-05-05T11:01:34.940Z,3.7385
2023-05-05T11:02:38.008Z,4.2615
2023-05-05T11:03:40.534Z,5.2769
2023-05-05T11:04:43.511Z,14.6462
2023-05-05T11:05:46.408Z,13.9923
2023-05-05T11:06:49.636Z,8.1923
2023-05-05T11:07:52.377Z,8.5231
2023-05-05T11:08:55.447Z,4.3077
2023-05-05T11:09:58.284Z,5.2538
2023-05-05T11:11:01.287Z,14.8692
2023-05-05T11:12:04.348Z,5.5923
2023-05-05T11:13:07.184Z,4.2385
2023-05-05T11:14:10.110Z,3.4846
2023-05-05T11:15:13.084Z,3.7692
2023-05-05T11:16:16.067Z,3.5000
2023-05-05T11:17:19.056Z,4.7077
2023-05-05T11:18:21.978Z,3.9846
2023-05-05T11:19:24.902Z,10.1692
2023-05-05T11:20:27.897Z,11.6923
2023-05-05T11:21:30.838Z,3.3154
2023-05-05T11:22:33.803Z,3.7462
2023-05-05T11:23:36.781Z,4.3231
2023-05-05T11:24:39.746Z,4.5231
2023-05-05T11:25:42.691Z,8.0769
2023-05-05T11:26:45.648Z,6.1231
2023-05-05T11:27:48.689Z,7.4923
2023-05-05T11:28:51.616Z,4.5154
2023-05-05T11:29:54.546Z,4.2231
2023-05-05T11:30:58.229Z,3.9538
2023-05-05T11:32:00.457Z,3.2154
2023-05-05T11:33:03.488Z,4.0923
2023-05-05T11:34:06.368Z,11.8154
2023-05-05T11:35:09.358Z,11.2308
2023-05-05T11:36:12.347Z,6.7077
2023-05-05T11:37:15.252Z,8.5385
2023-05-05T11:38:18.205Z,6.2000
2023-05-05T11:39:21.182Z,10.4615
2023-05-05T11:40:24.135Z,3.4462
2023-05-05T11:41:27.114Z,3.5692
2023-05-05T11:42:30.039Z,10.2462
2023-05-05T11:43:33.129Z,12.2231
2023-05-05T11:44:36.132Z,16.7538
2023-05-05T11:45:38.942Z,7.7769
2023-05-05T11:46:41.871Z,13.4385
2023-05-05T11:47:44.905Z,14.4154
2023-05-05T11:48:47.791Z,7.8692
2023-05-05T11:49:52.096Z,13.6846
2023-05-05T11:51:09.587Z,18.9000
2023-05-05T11:52:04.793Z,13.3500
2023-05-05T11:52:59.621Z,5.5250
2023-05-05T11:54:02.669Z,10.2846
2023-05-05T11:55:05.545Z,15.5846
2023-05-05T11:56:08.698Z,13.3846
2023-05-05T11:57:11.460Z,7.7077
2023-05-05T11:58:14.468Z,23.6846
2023-05-05T11:59:17.416Z,19.8846
2023-05-05T12:00:20.501Z,8.1000
2023-05-05T12:01:23.330Z,6.1231
2023-05-05T12:02:26.381Z,4.8615
2023-05-05T12:03:29.392Z,4.5000
2023-05-05T12:04:32.393Z,4.2154
2023-05-05T12:05:36.714Z,4.9077
2023-05-05T12:06:38.138Z,10.4538
2023-05-05T12:07:41.102Z,11.1000
2023-05-05T12:08:44.055Z,17.6462
2023-05-05T12:09:47.043Z,14.5385
2023-05-05T12:10:50.009Z,4.0000
2023-05-05T12:11:52.941Z,5.3308
2023-05-05T12:12:56.107Z,9.2154
2023-05-05T12:13:58.864Z,7.4692
2023-05-05T12:15:01.894Z,7.4615
2023-05-05T12:16:04.858Z,8.5923
2023-05-05T12:17:07.774Z,9.9308
2023-05-05T12:18:10.737Z,4.6615
2023-05-05T12:19:13.701Z,6.5308
2023-05-05T12:20:16.648Z,8.9769
2023-05-05T12:21:19.599Z,8.5308
2023-05-05T12:22:22.558Z,10.0923
2023-05-05T12:23:25.523Z,13.4077
2023-05-05T12:24:28.520Z,11.7692
2023-05-05T12:25:31.573Z,7.1923
2023-05-05T12:26:34.511Z,4.5692
2023-05-05T12:27:37.353Z,10.5385
2023-05-05T12:28:40.293Z,11.6538
2023-05-05T12:29:43.299Z,5.5308
2023-05-05T12:30:46.353Z,9.4538
2023-05-05T12:31:49.268Z,17.6154
2023-05-05T12:32:52.310Z,4.9923
2023-05-05T12:33:55.268Z,12.4538
2023-05-05T12:34:58.076Z,4.9077
2023-05-05T12:36:01.002Z,7.7385
2023-05-05T12:37:03.960Z,11.4846
2023-05-05T12:38:06.954Z,16.1077
2023-05-05T12:39:09.896Z,11.7462
2023-05-05T12:40:12.860Z,11.3769
2023-05-05T12:41:15.825Z,5.0308
2023-05-05T12:42:18.776Z,6.3154
2023-05-05T12:43:21.914Z,6.2308
2023-05-05T12:44:24.729Z,6.5000
2023-05-05T12:45:27.833Z,6.5077
2023-05-05T12:46:30.824Z,6.3769
2023-05-05T12:47:33.706Z,6.8385
2023-05-05T12:48:36.580Z,8.7308
2023-05-05T12:49:39.485Z,6.3615
2023-05-05T12:50:42.492Z,4.4000
2023-05-05T12:51:45.411Z,4.6154
2023-05-05T12:52:48.554Z,4.3385
2023-05-05T12:53:51.398Z,4.0000
2023-05-05T12:54:55.007Z,3.6538
2023-05-05T12:55:57.378Z,4.2538
2023-05-05T12:57:00.214Z,7.1000
2023-05-05T12:58:03.176Z,25.5231
2023-05-05T12:59:06.254Z,8.3462
2023-05-05T13:00:09.241Z,5.7385
2023-05-05T13:01:12.042Z,3.0615
2023-05-05T13:02:15.059Z,2.8846
2023-05-05T13:03:18.029Z,3.2846